createdAt,value
2023-05-24T00:01:57.042Z,4.28
2023-05-24T00:04:25.506Z,3.92
2023-05-24T00:06:55.136Z,4.03
2023-05-24T00:09:21.914Z,3.33
2023-05-24T00:11:48.792Z,3.97
2023-05-24T00:14:15.643Z,4.10
2023-05-24T00:16:42.492Z,3.33
2023-05-24T00:19:11.380Z,4.45
2023-05-24T00:21:38.260Z,4.07
2023-05-24T00:24:05.193Z,4.03
2023-05-24T00:26:31.817Z,3.40
2023-05-24T00:28:58.383Z,4.13
2023-05-24T00:31:25.073Z,3.30
2023-05-24T00:33:51.742Z,4.00
2023-05-24T00:36:18.350Z,4.50
2023-05-24T00:38:44.950Z,3.80
2023-05-24T00:41:11.653Z,4.60
2023-05-24T00:43:38.318Z,3.50
2023-05-24T00:46:16.883Z,3.65
2023-05-24T00:48:44.744Z,3.72
2023-05-24T00:51:13.333Z,4.00
2023-05-24T00:53:41.436Z,4.15
2023-05-24T00:56:08.636Z,3.63
2023-05-24T00:58:35.505Z,4.10
2023-05-24T01:01:03.691Z,3.47
2023-05-24T01:03:30.680Z,4.55
2023-05-24T01:06:03.499Z,3.95
2023-05-24T01:08:48.066Z,3.72
2023-05-24T01:11:33.263Z,3.67
2023-05-24T01:14:16.234Z,3.67
2023-05-24T01:16:56.578Z,4.45
2023-05-24T01:19:48.837Z,4.22
2023-05-24T01:24:55.902Z,4.20
2023-05-24T01:27:24.085Z,3.50
2023-05-24T01:29:53.536Z,3.88
2023-05-24T01:32:20.734Z,4.53
2023-05-24T01:34:47.483Z,3.88
2023-05-24T01:37:14.378Z,3.78
2023-05-24T01:39:41.856Z,3.88
2023-05-24T01:42:36.539Z,4.03
2023-05-24T01:45:30.096Z,4.00
2023-05-24T01:48:08.960Z,4.53
2023-05-24T01:50:49.872Z,4.35
2023-05-24T01:53:19.809Z,4.07
2023-05-24T01:55:49.608Z,4.20
2023-05-24T01:58:19.368Z,4.53
2023-05-24T02:00:46.528Z,4.00
2023-05-24T02:03:17.091Z,4.72
2023-05-24T02:05:45.112Z,4.22
2023-05-24T02:08:12.865Z,4.38
2023-05-24T02:10:41.044Z,3.83
2023-05-24T02:13:08.398Z,4.07
2023-05-24T02:15:35.658Z,3.97
2023-05-24T02:18:02.522Z,4.60
2023-05-24T02:20:31.161Z,4.55
2023-05-24T02:22:58.307Z,4.72
2023-05-24T02:25:24.862Z,4.28
2023-05-24T02:27:52.157Z,4.68
2023-05-24T02:30:18.915Z,4.05
2023-05-24T02:32:45.606Z,4.43
2023-05-24T02:35:12.577Z,4.20
2023-05-24T02:37:39.161Z,4.93
2023-05-24T02:40:06.567Z,4.78
2023-05-24T02:42:33.135Z,4.45
2023-05-24T02:44:59.702Z,4.68
2023-05-24T02:47:28.922Z,4.50
2023-05-24T02:49:56.397Z,5.05
2023-05-24T02:52:23.472Z,4.88
2023-05-24T02:54:50.516Z,4.07
2023-05-24T02:57:17.128Z,4.85
2023-05-24T02:59:43.935Z,4.90
2023-05-24T03:02:13.692Z,4.95
2023-05-24T03:04:40.510Z,5.50
2023-05-24T03:07:07.204Z,4.10
2023-05-24T03:09:33.894Z,4.78
2023-05-24T03:12:00.737Z,5.20
2023-05-24T03:14:27.466Z,5.10
2023-05-24T03:16:54.050Z,5.28
2023-05-24T03:19:20.692Z,5.07
2023-05-24T03:21:47.279Z,5.13
2023-05-24T03:24:14.358Z,5.32
2023-05-24T03:26:41.224Z,5.47
2023-05-24T03:29:07.981Z,5.22
2023-05-24T03:31:34.716Z,5.47
2023-05-24T03:34:01.525Z,4.80
2023-05-24T03:36:29.204Z,5.13
2023-05-24T03:38:58.473Z,5.13
2023-05-24T03:41:25.467Z,6.00
2023-05-24T03:43:52.771Z,5.32
2023-05-24T03:46:19.577Z,4.30
2023-05-24T03:48:46.327Z,5.90
2023-05-24T03:51:12.915Z,5.38
2023-05-24T03:53:39.616Z,5.50
2023-05-24T03:56:06.477Z,5.70
2023-05-24T03:58:33.112Z,4.90
2023-05-24T04:01:00.244Z,5.22
2023-05-24T04:03:27.225Z,5.47
2023-05-24T04:05:54.144Z,5.43
2023-05-24T04:08:20.744Z,5.45
2023-05-24T04:10:47.274Z,5.63
2023-05-24T04:13:13.921Z,5.45
2023-05-24T04:15:40.865Z,6.25
2023-05-24T04:18:07.696Z,5.50
2023-05-24T04:20:34.424Z,5.82
2023-05-24T04:23:01.243Z,6.43
2023-05-24T04:25:27.963Z,6.10
2023-05-24T04:27:54.638Z,6.10
2023-05-24T04:30:21.570Z,6.32
2023-05-24T04:32:48.735Z,6.38
2023-05-24T04:35:16.852Z,5.75
2023-05-24T04:37:44.574Z,5.53
2023-05-24T04:40:11.840Z,5.60
2023-05-24T04:42:38.482Z,6.28
2023-05-24T04:45:05.751Z,6.70
2023-05-24T04:47:32.540Z,5.35
2023-05-24T04:49:59.141Z,5.68
2023-05-24T04:52:25.934Z,6.18
2023-05-24T04:54:52.922Z,5.35
2023-05-24T04:57:19.543Z,6.68
2023-05-24T04:59:46.239Z,6.32
2023-05-24T05:02:12.891Z,5.72
2023-05-24T05:04:39.551Z,5.70
2023-05-24T05:07:06.772Z,6.03
2023-05-24T05:09:33.475Z,5.82
2023-05-24T05:12:00.242Z,5.45
2023-05-24T05:14:26.862Z,5.03
2023-05-24T05:16:53.494Z,5.32
2023-05-24T05:19:20.111Z,5.28
2023-05-24T05:21:46.883Z,4.55
2023-05-24T05:24:15.788Z,5.25
2023-05-24T05:26:42.657Z,5.03
2023-05-24T05:29:09.250Z,5.63
2023-05-24T05:31:36.073Z,5.35
2023-05-24T05:34:03.058Z,4.70
2023-05-24T05:36:29.638Z,6.13
2023-05-24T05:38:56.194Z,4.80
2023-05-24T05:41:22.836Z,4.63
2023-05-24T05:43:49.418Z,6.03
2023-05-24T05:46:16.238Z,5.13
2023-05-24T05:48:44.312Z,6.03
2023-05-24T05:51:12.971Z,5.18
2023-05-24T05:53:39.560Z,5.00
2023-05-24T05:56:06.356Z,5.32
2023-05-24T05:58:32.921Z,4.45
2023-05-24T06:00:59.537Z,4.22
2023-05-24T06:03:26.355Z,4.68
2023-05-24T06:05:53.096Z,4.90
2023-05-24T06:08:19.631Z,4.93
2023-05-24T06:10:46.321Z,4.25
2023-05-24T06:13:13.636Z,4.25
2023-05-24T06:15:40.613Z,4.82
2023-05-24T06:18:07.205Z,4.68
2023-05-24T06:20:33.850Z,5.00
2023-05-24T06:23:00.466Z,4.82
2023-05-24T06:25:30.804Z,4.30
2023-05-24T06:27:57.574Z,4.28
2023-05-24T06:30:24.355Z,4.65
2023-05-24T06:32:51.221Z,4.28
2023-05-24T06:35:18.000Z,4.65
2023-05-24T06:37:44.529Z,4.78
2023-05-24T06:40:11.923Z,4.28
2023-05-24T06:42:39.917Z,4.40
2023-05-24T06:45:08.475Z,4.35
2023-05-24T06:47:35.488Z,3.50
2023-05-24T06:50:04.360Z,3.83
2023-05-24T06:52:30.943Z,3.80
2023-05-24T06:54:57.514Z,4.07
2023-05-24T06:57:24.710Z,4.18
2023-05-24T06:59:52.062Z,3.92
2023-05-24T07:02:18.823Z,3.45
2023-05-24T07:04:46.054Z,4.00
2023-05-24T07:07:13.732Z,3.33
2023-05-24T07:09:42.213Z,3.30
2023-05-24T07:12:09.227Z,3.58
2023-05-24T07:14:36.170Z,3.92
2023-05-24T07:17:02.928Z,4.05
2023-05-24T07:19:30.024Z,4.18
2023-05-24T07:21:56.878Z,3.53
2023-05-24T07:24:24.183Z,3.38
2023-05-24T07:26:51.909Z,3.03
2023-05-24T07:29:18.564Z,3.30
2023-05-24T07:31:45.644Z,3.45
2023-05-24T07:34:12.298Z,3.78
2023-05-24T07:36:40.907Z,3.38
2023-05-24T07:39:10.004Z,3.92
2023-05-24T07:41:37.134Z,3.90
2023-05-24T07:44:03.820Z,3.55
2023-05-24T07:46:30.407Z,3.20
2023-05-24T07:48:57.028Z,3.40
2023-05-24T07:51:23.724Z,3.08
2023-05-24T07:53:53.189Z,3.10
2023-05-24T07:56:19.812Z,3.20
2023-05-24T07:58:46.972Z,3.10
2023-05-24T08:01:14.476Z,3.70
2023-05-24T08:03:41.273Z,3.67
2023-05-24T08:06:08.109Z,3.58
2023-05-24T08:08:34.756Z,3.58
2023-05-24T08:11:01.950Z,3.70
2023-05-24T08:13:28.549Z,3.70
2023-05-24T08:15:55.147Z,3.00
2023-05-24T08:18:21.775Z,3.28
2023-05-24T08:20:48.535Z,3.03
2023-05-24T08:23:15.233Z,4.03
2023-05-24T08:25:42.899Z,2.85
2023-05-24T08:28:11.108Z,3.50
2023-05-24T08:30:38.156Z,2.85
2023-05-24T08:33:04.839Z,3.45
2023-05-24T08:35:31.617Z,3.20
2023-05-24T08:37:58.169Z,3.20
2023-05-24T08:40:25.160Z,2.92
2023-05-24T08:42:52.805Z,2.60
2023-05-24T08:45:21.859Z,2.80
2023-05-24T08:47:50.638Z,3.13
2023-05-24T08:50:18.265Z,2.50
2023-05-24T08:52:46.158Z,2.80
2023-05-24T08:55:12.886Z,2.85
2023-05-24T08:57:41.484Z,4.45
2023-05-24T09:00:12.999Z,4.22
2023-05-24T09:02:42.125Z,6.65
2023-05-24T09:05:11.089Z,8.07
2023-05-24T09:07:38.373Z,3.05
2023-05-24T09:10:07.400Z,3.45
2023-05-24T09:12:38.057Z,2.10
2023-05-24T09:15:07.068Z,3.97
2023-05-24T09:17:37.940Z,3.13
2023-05-24T09:20:10.729Z,2.77
2023-05-24T09:22:41.144Z,4.80
2023-05-24T09:25:09.917Z,2.83
2023-05-24T09:27:37.715Z,2.92
2023-05-24T09:30:09.176Z,2.97
2023-05-24T09:32:36.202Z,2.97
2023-05-24T09:35:02.832Z,3.03
2023-05-24T09:37:32.770Z,2.92
2023-05-24T09:39:59.913Z,2.60
2023-05-24T09:42:31.217Z,2.60
2023-05-24T09:45:09.552Z,2.30
2023-05-24T09:47:38.221Z,2.85
2023-05-24T09:50:07.083Z,2.80
2023-05-24T09:52:37.498Z,2.95
2023-05-24T09:55:18.080Z,2.50
2023-05-24T09:57:49.910Z,2.67
2023-05-24T10:00:22.697Z,2.95
2023-05-24T10:03:15.083Z,2.50
2023-05-24T10:05:45.829Z,2.28
2023-05-24T10:08:14.451Z,2.47
2023-05-24T10:10:42.814Z,3.00
2023-05-24T10:13:10.459Z,2.90
2023-05-24T10:15:37.062Z,2.33
2023-05-24T10:18:11.243Z,2.35
2023-05-24T10:20:41.882Z,2.80
2023-05-24T10:23:10.383Z,2.35
2023-05-24T10:25:41.424Z,2.60
2023-05-24T10:28:12.555Z,2.92
2023-05-24T10:30:53.284Z,2.60
2023-05-24T10:33:23.277Z,2.92
2023-05-24T10:35:51.241Z,2.25
2023-05-24T10:38:22.619Z,2.58
2023-05-24T10:40:49.564Z,2.47
2023-05-24T10:43:17.687Z,2.60
2023-05-24T10:45:49.168Z,2.80
2023-05-24T10:48:15.871Z,2.25
2023-05-24T10:50:44.156Z,2.72
2023-05-24T10:53:19.116Z,2.75
2023-05-24T10:55:55.874Z,2.30
2023-05-24T10:58:28.338Z,3.20
2023-05-24T11:00:56.184Z,2.70
2023-05-24T11:03:24.617Z,2.30
2023-05-24T11:05:54.588Z,2.90
2023-05-24T11:08:43.787Z,2.78
2023-05-24T11:16:09.151Z,3.13
2023-05-24T11:18:40.144Z,3.53
2023-05-24T11:21:06.795Z,3.78
2023-05-24T11:23:35.394Z,2.78
2023-05-24T11:26:03.757Z,2.83
2023-05-24T11:28:30.739Z,3.15
2023-05-24T11:30:57.431Z,2.40
2023-05-24T11:33:24.566Z,2.45
2023-05-24T11:35:52.390Z,2.78
2023-05-24T11:38:23.457Z,3.55
2023-05-24T11:40:51.475Z,3.15
2023-05-24T11:43:20.510Z,2.85
2023-05-24T11:45:49.705Z,3.25
2023-05-24T11:48:17.265Z,3.17
2023-05-24T11:50:49.809Z,2.70
2023-05-24T11:53:19.372Z,3.38
2023-05-24T11:55:46.613Z,3.42
2023-05-24T11:58:37.555Z,3.55
2023-05-24T12:01:04.148Z,2.95
2023-05-24T12:03:31.049Z,2.97
2023-05-24T12:05:57.867Z,3.15
2023-05-24T12:08:24.447Z,3.10
2023-05-24T12:10:51.813Z,3.58
2023-05-24T12:13:23.841Z,3.55
2023-05-24T12:18:26.000Z,3.97
2023-05-24T12:20:53.174Z,3.25
2023-05-24T12:23:21.681Z,3.33
2023-05-24T12:25:48.243Z,3.50
2023-05-24T12:28:15.132Z,2.78
2023-05-24T12:30:45.151Z,3.50
2023-05-24T12:33:12.080Z,3.10
2023-05-24T12:35:42.721Z,4.00
2023-05-24T12:38:10.794Z,3.95
2023-05-24T12:40:37.862Z,3.67
2023-05-24T12:43:05.179Z,4.05
2023-05-24T12:45:32.145Z,3.15
2023-05-24T12:48:01.167Z,3.42
2023-05-24T12:50:27.829Z,3.50
2023-05-24T12:52:54.453Z,3.13
2023-05-24T12:55:28.822Z,3.10
2023-05-24T12:57:56.572Z,3.25
2023-05-24T13:00:27.460Z,3.08
2023-05-24T13:02:58.993Z,3.05
2023-05-24T13:05:27.689Z,3.67
2023-05-24T13:07:59.157Z,3.00
2023-05-24T13:10:27.678Z,3.30
2023-05-24T13:12:54.265Z,3.50
2023-05-24T13:15:23.318Z,3.78
2023-05-24T13:17:50.324Z,3.42
2023-05-24T13:20:18.770Z,3.50
2023-05-24T13:22:45.376Z,3.72
2023-05-24T13:25:12.083Z,3.17
2023-05-24T13:27:39.881Z,3.63
2023-05-24T13:30:08.560Z,3.75
2023-05-24T13:32:35.347Z,3.55
2023-05-24T13:35:02.144Z,3.33
2023-05-24T13:37:29.001Z,4.10
2023-05-24T13:39:56.050Z,4.05
2023-05-24T13:42:23.113Z,4.60
2023-05-24T13:44:49.840Z,5.00
2023-05-24T13:47:31.117Z,4.10
2023-05-24T13:50:02.304Z,3.88
2023-05-24T13:52:28.836Z,3.50
2023-05-24T13:54:55.934Z,4.20
2023-05-24T13:57:24.395Z,4.20
2023-05-24T13:59:53.448Z,3.70
2023-05-24T14:02:20.070Z,3.83
2023-05-24T14:04:46.658Z,4.47
2023-05-24T14:07:15.755Z,4.85
2023-05-24T14:09:42.677Z,3.85
2023-05-24T14:12:09.425Z,3.25
2023-05-24T14:14:59.192Z,4.13
2023-05-24T14:17:23.310Z,3.67
2023-05-24T14:19:50.002Z,3.65
2023-05-24T14:22:16.622Z,3.78
2023-05-24T14:24:44.142Z,4.10
2023-05-24T14:27:10.802Z,3.88
2023-05-24T14:29:37.350Z,3.80
2023-05-24T14:32:04.191Z,3.85
2023-05-24T14:34:30.988Z,4.20
2023-05-24T14:36:57.618Z,3.67
2023-05-24T14:39:24.164Z,4.00
2023-05-24T14:41:50.769Z,3.78
2023-05-24T14:44:17.991Z,4.03
2023-05-24T14:46:46.412Z,4.10
2023-05-24T14:49:13.188Z,4.35
2023-05-24T14:51:39.805Z,4.18
2023-05-24T14:54:06.519Z,3.83
2023-05-24T14:56:33.527Z,3.67
2023-05-24T14:59:00.134Z,4.57
2023-05-24T15:01:27.764Z,5.03
2023-05-24T15:03:54.421Z,4.78
2023-05-24T15:06:21.116Z,4.57
2023-05-24T15:08:47.949Z,5.00
2023-05-24T15:11:17.431Z,4.68
2023-05-24T15:13:44.047Z,4.80
2023-05-24T15:16:10.672Z,5.05
2023-05-24T15:18:37.287Z,4.70
2023-05-24T15:21:04.113Z,4.43
2023-05-24T15:23:30.786Z,4.10
2023-05-24T15:25:57.440Z,4.45
2023-05-24T15:28:26.187Z,4.30
2023-05-24T15:30:53.365Z,4.05
2023-05-24T15:33:20.049Z,3.70
2023-05-24T15:35:47.141Z,3.45
2023-05-24T15:38:17.500Z,3.40
2023-05-24T15:40:44.996Z,4.13
2023-05-24T15:43:11.784Z,3.90
2023-05-24T15:45:38.390Z,3.70
2023-05-24T15:48:05.149Z,4.28
2023-05-24T15:50:49.322Z,4.07
2023-05-24T15:53:21.548Z,4.05
2023-05-24T15:55:48.459Z,3.90
2023-05-24T15:58:15.762Z,3.38
2023-05-24T16:00:43.150Z,3.33
2023-05-24T16:03:10.220Z,3.25
2023-05-24T16:05:37.133Z,3.47
2023-05-24T16:08:04.188Z,3.85
2023-05-24T16:10:30.916Z,3.40
2023-05-24T16:12:58.700Z,3.33
2023-05-24T16:15:26.636Z,2.88
2023-05-24T16:17:53.691Z,3.28
2023-05-24T16:20:20.365Z,2.70
2023-05-24T16:22:50.859Z,3.13
2023-05-24T16:25:17.464Z,3.53
2023-05-24T16:27:44.131Z,3.30
2023-05-24T16:30:11.150Z,3.08
2023-05-24T16:32:39.423Z,3.10
2023-05-24T16:35:07.451Z,2.83
2023-05-24T16:37:34.708Z,3.30
2023-05-24T16:40:01.396Z,3.05
2023-05-24T16:42:28.099Z,3.10
2023-05-24T16:44:54.690Z,3.03
2023-05-24T16:47:21.344Z,3.53
2023-05-24T16:49:48.023Z,3.30
2023-05-24T16:52:14.744Z,3.95
2023-05-24T16:54:41.286Z,3.78
2023-05-24T16:57:08.119Z,3.40
2023-05-24T16:59:34.775Z,3.38
2023-05-24T17:02:01.400Z,4.97
2023-05-24T17:04:27.965Z,4.05
2023-05-24T17:06:54.537Z,3.92
2023-05-24T17:09:21.538Z,3.92
2023-05-24T17:11:49.357Z,3.33
2023-05-24T17:14:17.265Z,3.47
2023-05-24T17:16:43.887Z,3.92
2023-05-24T17:19:12.709Z,4.03
2023-05-24T17:21:39.414Z,3.90
2023-05-24T17:24:06.402Z,4.30
2023-05-24T17:26:32.971Z,3.70
2023-05-24T17:28:59.550Z,3.63
2023-05-24T17:31:26.196Z,4.15
2023-05-24T17:33:52.955Z,4.30
2023-05-24T17:36:19.509Z,3.88
2023-05-24T17:38:46.101Z,4.20
2023-05-24T17:41:12.741Z,3.88
2023-05-24T17:43:40.504Z,4.20
2023-05-24T17:46:07.721Z,4.20
2023-05-24T17:48:36.666Z,3.75
2023-05-24T17:51:07.942Z,4.13
2023-05-24T17:53:35.530Z,3.70
2023-05-24T17:56:03.403Z,4.28
2023-05-24T17:58:32.823Z,4.60
2023-05-24T18:00:59.471Z,4.70
2023-05-24T18:03:26.365Z,4.25
2023-05-24T18:05:52.975Z,4.57
2023-05-24T18:08:19.593Z,4.45
2023-05-24T18:10:46.196Z,4.00
2023-05-24T18:13:13.213Z,5.25
2023-05-24T18:15:39.862Z,4.75
2023-05-24T18:18:06.580Z,4.38
2023-05-24T18:20:33.852Z,4.90
2023-05-24T18:23:00.469Z,4.65
2023-05-24T18:25:27.189Z,4.82
2023-05-24T18:27:53.736Z,4.57
2023-05-24T18:30:20.392Z,4.32
2023-05-24T18:33:03.146Z,5.13
2023-05-24T18:35:32.133Z,5.15
2023-05-24T18:37:58.864Z,4.88
2023-05-24T18:40:25.548Z,5.10
2023-05-24T18:42:52.254Z,4.45
2023-05-24T18:45:18.994Z,4.97
2023-05-24T18:47:45.626Z,4.82
2023-05-24T18:50:12.269Z,4.50
2023-05-24T18:52:38.880Z,5.35
2023-05-24T18:55:10.542Z,5.40
2023-05-24T18:57:37.996Z,4.55
2023-05-24T19:00:07.062Z,5.18
2023-05-24T19:02:39.013Z,4.68
2023-05-24T19:07:34.209Z,5.10
2023-05-24T19:10:01.048Z,5.20
2023-05-24T19:12:27.645Z,5.03
2023-05-24T19:14:54.284Z,5.10
2023-05-24T19:17:21.000Z,5.85
2023-05-24T19:19:48.103Z,5.13
2023-05-24T19:22:14.704Z,5.07
2023-05-24T19:24:41.693Z,5.25
2023-05-24T19:27:08.708Z,5.95
2023-05-24T19:29:36.656Z,5.20
2023-05-24T19:32:03.448Z,5.35
2023-05-24T19:34:31.968Z,5.72
2023-05-24T19:36:58.656Z,5.00
2023-05-24T19:39:25.445Z,5.28
2023-05-24T19:41:54.867Z,5.00
2023-05-24T19:44:21.673Z,5.20
2023-05-24T19:46:48.290Z,5.03
2023-05-24T19:49:14.861Z,5.30
2023-05-24T19:51:41.562Z,5.18
2023-05-24T19:54:09.431Z,5.32
2023-05-24T19:56:36.345Z,5.07
2023-05-24T19:59:03.099Z,5.00
2023-05-24T20:01:29.689Z,5.80
2023-05-24T20:03:56.415Z,6.00
2023-05-24T20:06:23.020Z,6.03
2023-05-24T20:08:49.639Z,5.50
2023-05-24T20:11:16.281Z,6.38
2023-05-24T20:13:42.882Z,6.07
2023-05-24T20:16:09.505Z,5.63
2023-05-24T20:18:36.398Z,5.20
2023-05-24T20:21:03.495Z,5.75
2023-05-24T20:23:30.903Z,5.47
2023-05-24T20:25:58.034Z,5.75
2023-05-24T20:28:30.811Z,5.13
2023-05-24T20:30:58.441Z,6.07
2023-05-24T20:33:25.103Z,5.78
2023-05-24T20:35:53.133Z,5.25
2023-05-24T20:38:19.985Z,5.40
2023-05-24T20:40:46.638Z,5.47
2023-05-24T20:43:13.300Z,5.47
2023-05-24T20:45:40.063Z,5.68
2023-05-24T20:48:06.917Z,5.00
2023-05-24T20:50:33.555Z,5.80
2023-05-24T20:53:00.239Z,5.10
2023-05-24T20:55:27.191Z,5.60
2023-05-24T20:57:54.324Z,5.55
2023-05-24T21:00:21.207Z,5.38
2023-05-24T21:02:48.055Z,5.40
2023-05-24T21:05:14.849Z,5.88
2023-05-24T21:07:41.627Z,5.72
2023-05-24T21:10:09.358Z,5.43
2023-05-24T21:12:36.013Z,5.80
2023-05-24T21:15:02.598Z,5.43
2023-05-24T21:17:29.304Z,5.47
2023-05-24T21:19:55.970Z,5.43
2023-05-24T21:22:22.637Z,5.57
2023-05-24T21:24:49.322Z,5.03
2023-05-24T21:27:15.893Z,5.43
2023-05-24T21:29:42.505Z,4.63
2023-05-24T21:32:09.097Z,5.28
2023-05-24T21:34:38.539Z,5.43
2023-05-24T21:37:05.355Z,5.28
2023-05-24T21:39:32.798Z,4.85
2023-05-24T21:41:59.406Z,5.53
2023-05-24T21:44:25.945Z,5.47
2023-05-24T21:46:52.633Z,5.57
2023-05-24T21:49:20.111Z,5.47
2023-05-24T21:51:46.930Z,5.85
2023-05-24T21:54:13.593Z,5.78
2023-05-24T21:56:40.272Z,5.80
2023-05-24T21:59:06.868Z,6.07
2023-05-24T22:01:33.544Z,6.30
2023-05-24T22:04:00.199Z,5.68
2023-05-24T22:06:26.832Z,5.82
2023-05-24T22:08:53.489Z,5.63
2023-05-24T22:11:20.331Z,6.03
2023-05-24T22:13:46.891Z,5.40
2023-05-24T22:16:13.514Z,5.95
2023-05-24T22:18:40.088Z,6.18
2023-05-24T22:21:06.678Z,5.80
2023-05-24T22:23:33.405Z,6.30
2023-05-24T22:26:00.155Z,6.35
2023-05-24T22:28:26.784Z,5.93
2023-05-24T22:30:53.435Z,6.15
2023-05-24T22:33:20.061Z,6.28
2023-05-24T22:35:46.749Z,6.07
2023-05-24T22:38:13.362Z,6.47
2023-05-24T22:40:42.131Z,5.88
2023-05-24T22:43:09.012Z,5.78
2023-05-24T22:45:35.572Z,6.20
2023-05-24T22:48:03.474Z,5.50
2023-05-24T22:50:30.204Z,5.40
2023-05-24T22:52:56.924Z,5.55
2023-05-24T22:55:23.986Z,5.50
2023-05-24T22:57:50.827Z,5.25
2023-05-24T23:00:17.752Z,5.07
2023-05-24T23:02:44.461Z,6.15
2023-05-24T23:05:11.596Z,5.60
2023-05-24T23:07:39.919Z,6.18
2023-05-24T23:10:08.055Z,5.82
2023-05-24T23:12:35.881Z,5.93
2023-05-24T23:15:02.790Z,5.55
2023-05-24T23:17:29.507Z,6.05
2023-05-24T23:19:56.314Z,6.07
2023-05-24T23:22:23.975Z,5.78
2023-05-24T23:24:50.847Z,6.03
2023-05-24T23:27:17.936Z,6.60
2023-05-24T23:29:44.633Z,6.07
2023-05-24T23:32:11.621Z,6.07
2023-05-24T23:34:38.267Z,6.00
2023-05-24T23:37:05.567Z,5.30
2023-05-24T23:39:32.162Z,5.28
2023-05-24T23:41:58.951Z,6.10
2023-05-24T23:44:25.834Z,6.40
2023-05-24T23:46:53.126Z,5.18
2023-05-24T23:49:20.612Z,5.50
2023-05-24T23:51:47.357Z,4.88
2023-05-24T23:54:18.980Z,5.75
2023-05-24T23:56:45.652Z,5.40
2023-05-24T23:59:12.663Z,4.78
